EW3235 Weather Reports


Display with metric or nautical units.
time (UTC)temp
F
wind
direction
speed
MPH
gust
MPH
rain 1hr
in
rain 24hr
in
rain mn
in
humidity
%
barometer
mb
20180717204807 87 286 0.0 3.0 0.00 0.00 0.00 42 1014.2
20180717203221 85 140 0.0 3.0 0.00 0.00 0.00 45 1014.4
20180717201444 84 154 0.0 2.0 0.00 0.00 0.00 46 1014.5
20180717195939 82 205 0.0 3.0 0.00 0.00 0.00 48 1014.7
20180717194635 82 82 0.0 2.0 0.00 0.00 0.00 48 1014.8
20180717193052 79 146 0.0 2.0 0.00 0.00 0.00 51 1015.0
20180717191724 78 326 0.0 4.0 0.00 0.00 0.00 52 1015.2
20180717190046 78 143 0.0 2.0 0.00 0.00 0.00 53 1015.3
20180717185328 77 262 0.0 3.0 0.00 0.00 0.00 56 1015.4
20180717183743 75 242 1.0 5.0 0.00 0.00 0.00 57 1015.4
20180717181546 74 190 0.0 2.0 0.00 0.00 0.00 60 1015.4
20180717180112 73 153 0.0 2.0 0.00 0.00 0.00 62 1015.4
20180717174454 71 209 0.0 1.0 0.00 0.00 0.00 65 1015.4
20180717172944 69 213 0.0 3.0 0.00 0.00 0.00 69 1015.4
20180717171820 68 164 0.0 2.0 0.00 0.00 0.00 71 1015.6
20180717170043 65 213 0.0 1.0 0.00 0.00 0.00 77 1015.7
20180717164358 64 256 0.0 3.0 0.00 0.00 0.00 79 1015.8
20180717162919 62 277 0.0 2.0 0.00 0.00 0.00 83 1015.8
20180717161759 60 248 0.0 3.0 0.00 0.00 0.00 85 1015.9
20180717155904 58 89 0.0 1.0 0.00 0.00 0.00 88 1015.9
20180717154417 57 258 0.0 0.0 0.00 0.00 0.00 89 1015.8
20180717153050 57 244 0.0 0.0 0.00 0.00 0.00 90 1015.8
20180717151724 56 83 0.0 0.0 0.00 0.00 0.00 90 1015.7
20180717150757 56 295 0.0 0.0 0.00 0.00 0.00 91 1015.7
20180717144453 55 79 0.0 0.0 0.00 0.00 0.00 91 1015.6
20180717143224 55 116 0.0 1.0 0.00 0.00 0.00 91 1015.6
20180717135916 55 15 0.0 1.0 0.00 0.00 0.00 91 1015.3
20180717134317 55 22 0.0 2.0 0.00 0.00 0.00 91 1015.2
20180717132848 55 305 0.0 0.0 0.00 0.00 0.00 91 1015.2
20180717131929 55 360 0.0 1.0 0.00 0.00 0.00 91 1015.1
20180717125943 55 353 0.0 1.0 0.00 0.00 0.00 91 1015.1
20180717124300 55 248 0.0 0.0 0.00 0.00 0.00 91 1015.2
20180717123137 55 269 0.0 0.0 0.00 0.00 0.00 91 1015.1
20180717121509 55 267 0.0 0.0 0.00 0.00 0.00 90 1015.2
20180717120313 55 267 0.0 0.0 0.00 0.00 0.00 91 1015.2
20180717114350 55 264 0.0 0.0 0.00 0.00 0.00 90 1015.2
20180717112715 55 241 0.0 0.0 0.00 0.00 0.00 90 1015.2
20180717111344 55 241 0.0 0.0 0.00 0.00 0.00 90 1015.3
20180717105709 55 237 0.0 0.0 0.00 0.00 0.00 90 1015.2
20180717104231 55 288 0.0 0.0 0.00 0.00 0.00 90 1015.1
20180717102903 55 285 0.0 0.0 0.00 0.00 0.00 90 1015.1
20180717101311 55 253 0.0 0.0 0.00 0.00 0.00 90 1015.1
20180717100658 55 245 0.0 0.0 0.00 0.00 0.00 90 1015.1
20180717094148 56 201 0.0 0.0 0.00 0.00 0.00 89 1014.9
20180717093429 56 200 0.0 0.0 0.00 0.00 0.00 89 1014.9
20180717091543 56 250 0.0 0.0 0.00 0.00 0.00 89 1014.8
20180717090117 56 282 0.0 0.0 0.00 0.00 0.00 89 1014.7
20180717084447 56 289 0.0 1.0 0.00 0.00 0.00 89 1014.8
20180717082712 57 286 0.0 1.0 0.00 0.00 0.00 89 1014.9
20180717081339 57 274 0.0 2.0 0.00 0.00 0.00 89 1014.9
20180717075659 57 257 0.0 1.0 0.00 0.00 0.00 88 1014.9
20180717074115 57 249 0.0 1.0 0.00 0.00 0.00 89 1014.8
20180717073152 57 250 0.0 1.0 0.00 0.00 0.00 88 1014.7
20180717071413 57 190 0.0 1.0 0.00 0.00 0.00 89 1014.5
20180717065629 56 257 0.0 1.0 0.00 0.00 0.00 88 1014.4
20180717064244 56 210 0.0 1.0 0.00 0.00 0.00 88 1014.4
20180717062602 57 128 0.0 1.0 0.00 0.00 0.00 86 1014.1
20180717061338 57 45 0.0 0.0 0.00 0.00 0.00 85 1014.0
20180717060007 58 26 0.0 1.0 0.00 0.00 0.00 84 1013.9
20180717054845 58 300 0.0 1.0 0.00 0.00 0.00 83 1013.9
20180717052646 60 124 0.0 0.0 0.00 0.00 0.00 80 1013.8
20180717052338 60 111 0.0 1.0 0.00 0.00 0.00 80 1013.8
20180717045536 62 349 0.0 0.0 0.00 0.00 0.00 76 1013.5
20180717044050 63 60 0.0 2.0 0.00 0.00 0.00 75 1013.3
20180717042810 63 218 0.0 1.0 0.00 0.00 0.00 73 1013.3
20180717041034 65 213 0.0 0.0 0.00 0.00 0.00 69 1013.2
20180717035601 66 69 0.0 0.0 0.00 0.00 0.00 67 1013.1
20180717034117 68 89 0.0 0.0 0.00 0.00 0.00 64 1013.0
20180717032955 69 186 0.0 0.0 0.00 0.00 0.00 62 1013.0
20180717031111 71 207 0.0 0.0 0.00 0.00 0.00 58 1012.9
20180717025746 73 203 0.0 1.0 0.00 0.00 0.00 56 1012.9
20180717023957 75 218 0.0 1.0 0.00 0.00 0.00 53 1012.9
20180717022527 76 233 0.0 3.0 0.00 0.00 0.00 51 1012.9
20180717020957 78 224 0.0 1.0 0.00 0.00 0.00 47 1012.8
20180717015523 80 248 0.0 3.0 0.00 0.00 0.00 46 1012.8
20180717013321 81 220 0.0 1.0 0.00 0.00 0.00 44 1012.8
20180717011126 82 159 0.0 3.0 0.00 0.00 0.00 44 1012.9
20180717005450 83 184 0.0 4.0 0.00 0.00 0.00 44 1013.0
20180717004755 83 216 0.0 3.0 0.00 0.00 0.00 43 1013.0
20180717002431 85 223 1.0 3.0 0.00 0.00 0.00 42 1013.1
20180717002028 85 167 0.0 4.0 0.00 0.00 0.00 43 1013.1
20180716235522 88 117 0.0 5.0 0.00 0.00 0.00 40 1013.0
20180716234906 88 319 0.0 4.0 0.00 0.00 0.00 41 1013.0
20180716232611 88 196 0.0 7.0 0.00 0.00 0.00 41 1013.1
20180716230925 89 141 1.0 5.0 0.00 0.00 0.00 40 1013.2
20180716230026 89 295 1.0 4.0 0.00 0.00 0.00 40 1013.2
20180716223914 91 197 1.0 4.0 0.00 0.00 0.00 38 1013.3
20180716223607 91 247 0.0 4.0 0.00 0.00 0.00 39 1013.2
20180716220906 92 148 0.0 2.0 0.00 0.00 0.00 35 1013.4
20180716215849 92 149 0.0 2.0 0.00 0.00 0.00 35 1013.4
20180716214300 92 353 0.0 1.0 0.00 0.00 0.00 34 1013.5
20180716212854 90 294 0.0 4.0 0.00 0.00 0.00 37 1013.5
20180716210856 90 151 0.0 1.0 0.00 0.00 0.00 37 1013.7